| time (UTC) | temp F | wind direction | speed knots | gust knots | rain 1hr in | rain 24hr in | rain mn in | humidity % | barometer mb |
| 20260904141545 | 81 | 333 | 1.7 | 5.2 | 0.00 | 0.47 | 0.47 | 81 | 1013.2 |
| 20260904140042 | 80 | 352 | 0.9 | 4.3 | 0.00 | 0.47 | 0.47 | 83 | 1013.1 |
| 20260904134551 | 79 | 14 | 0.0 | 4.3 | 0.00 | 0.47 | 0.47 | 85 | 1013.2 |
| 20260904133040 | 78 | 40 | 3.5 | 7.0 | 0.00 | 0.47 | 0.47 | 87 | 1013.1 |
| 20260904131538 | 77 | 26 | 2.6 | 7.8 | 0.00 | 0.47 | 0.47 | 90 | 1013.0 |
| 20260904130049 | 76 | 27 | 5.2 | 9.6 | 0.00 | 0.47 | 0.47 | 92 | 1012.8 |
| 20260904124543 | 76 | 51 | 2.6 | 8.7 | 0.00 | 0.47 | 0.47 | 93 | 1012.7 |
| 20260904123041 | 75 | 23 | 3.5 | 6.1 | 0.00 | 0.47 | 0.47 | 94 | 1012.5 |
| 20260904121540 | 74 | 282 | 0.0 | 2.6 | 0.00 | 0.47 | 0.47 | 94 | 1012.5 |
| 20260904120051 | 74 | 323 | 0.0 | 0.0 | 0.00 | 0.47 | 0.47 | 94 | 1012.4 |
| 20260904114543 | 73 | 239 | 0.0 | 0.0 | 0.00 | 0.47 | 0.47 | 95 | 1012.2 |
| 20260904113043 | 73 | 234 | 0.0 | 0.0 | 0.00 | 0.47 | 0.47 | 95 | 1012.0 |
| 20260904111542 | 72 | 222 | 0.0 | 0.0 | 0.00 | 0.47 | 0.47 | 94 | 1011.8 |
| 20260904110050 | 72 | 350 | 0.0 | 0.0 | 0.00 | 0.47 | 0.47 | 94 | 1011.8 |
| 20260904104544 | 72 | 350 | 0.0 | 0.0 | 0.00 | 0.47 | 0.47 | 94 | 1011.7 |
| 20260904103052 | 72 | 190 | 0.0 | 0.0 | 0.00 | 0.47 | 0.47 | 94 | 1011.5 |
| 20260904101542 | 72 | 190 | 0.0 | 0.0 | 0.00 | 0.47 | 0.47 | 94 | 1011.5 |
| 20260904100051 | 72 | 206 | 0.0 | 0.0 | 0.00 | 0.47 | 0.47 | 94 | 1011.4 |
| 20260904094553 | 72 | 188 | 0.0 | 0.0 | 0.00 | 0.47 | 0.47 | 94 | 1011.3 |
| 20260904093054 | 72 | 222 | 0.0 | 3.5 | 0.00 | 0.47 | 0.47 | 94 | 1011.3 |
| 20260904091553 | 72 | 177 | 0.0 | 2.6 | 0.00 | 0.47 | 0.47 | 94 | 1011.4 |
| 20260904090053 | 73 | 154 | 1.7 | 4.3 | 0.00 | 0.47 | 0.47 | 94 | 1011.4 |
| 20260904084552 | 73 | 148 | 0.9 | 5.2 | 0.01 | 0.47 | 0.47 | 94 | 1011.5 |
| 20260904083044 | 73 | 146 | 0.9 | 2.6 | 0.01 | 0.47 | 0.47 | 94 | 1011.5 |
| 20260904081555 | 73 | 131 | 0.0 | 0.0 | 0.01 | 0.47 | 0.47 | 94 | 1011.5 |
| 20260904080052 | 72 | 355 | 0.0 | 0.0 | 0.02 | 0.47 | 0.47 | 94 | 1011.6 |
| 20260904074601 | 73 | 355 | 0.0 | 2.6 | 0.03 | 0.45 | 0.45 | 94 | 1011.3 |
| 20260904073045 | 73 | 15 | 0.0 | 3.5 | 0.04 | 0.45 | 0.45 | 93 | 1011.1 |
| 20260904071611 | 73 | 346 | 0.0 | 0.0 | 0.08 | 0.45 | 0.45 | 93 | 1011.2 |
| 20260904070106 | 73 | 260 | 1.7 | 3.5 | 0.09 | 0.45 | 0.45 | 92 | 1010.9 |
| 20260904064605 | 73 | 200 | 3.5 | 6.1 | 0.13 | 0.42 | 0.42 | 92 | 1011.0 |
| 20260904063054 | 73 | 281 | 0.0 | 0.0 | 0.17 | 0.41 | 0.41 | 92 | 1011.2 |
| 20260904061553 | 73 | 164 | 0.9 | 3.5 | 0.22 | 0.38 | 0.38 | 92 | 1011.2 |
| 20260904060054 | 73 | 139 | 0.9 | 6.1 | 0.35 | 0.35 | 0.35 | 92 | 1011.3 |
| 20260904054551 | 74 | 226 | 4.3 | 8.7 | 0.29 | 0.29 | 0.29 | 91 | 1011.9 |
| 20260904053100 | 74 | 232 | 1.7 | 3.5 | 0.22 | 0.22 | 0.22 | 90 | 1012.4 |
| 20260904051553 | 75 | 282 | 1.7 | 9.6 | 0.14 | 0.14 | 0.14 | 88 | 1013.3 |
| 20260904050107 | 77 | 298 | 8.7 | 23.5 | 0.00 | 0.00 | 0.00 | 82 | 1013.8 |
| 20260904044617 | 79 | 17 | 12.2 | 20.9 | 0.00 | 0.00 | 0.00 | 81 | 1014.1 |
| 20260904043105 | 82 | 17 | 10.4 | 20.9 | 0.00 | 0.00 | 0.00 | 87 | 1013.6 |
| 20260904041540 | 82 | 321 | 3.5 | 8.7 | 0.00 | 0.00 | 0.00 | 88 | 1012.4 |
| 20260904040041 | 83 | 17 | 2.6 | 7.0 | 0.00 | 0.00 | 0.00 | 87 | 1012.8 |
| 20260904034540 | 83 | 298 | 5.2 | 9.6 | 0.00 | 0.00 | 0.00 | 87 | 1012.0 |
| 20260904033049 | 83 | 319 | 0.9 | 3.5 | 0.00 | 0.00 | 0.00 | 87 | 1011.8 |
| 20260904031557 | 83 | 5 | 0.0 | 0.0 | 0.00 | 0.00 | 0.00 | 88 | 1011.6 |
| 20260904030040 | 83 | 5 | 0.0 | 0.0 | 0.00 | 0.00 | 0.00 | 87 | 1011.6 |
| 20260904024543 | 84 | 34 | 0.0 | 0.0 | 0.00 | 0.00 | 0.00 | 86 | 1011.6 |
| 20260904023042 | 85 | 165 | 0.0 | 0.9 | 0.00 | 0.00 | 0.00 | 84 | 1011.7 |
| 20260904021548 | 85 | 179 | 0.0 | 0.9 | 0.00 | 0.00 | 0.00 | 84 | 1011.8 |
| 20260904020041 | 85 | 261 | 0.0 | 0.0 | 0.00 | 0.00 | 0.00 | 84 | 1012.1 |
| 20260904014544 | 85 | 159 | 0.0 | 0.9 | 0.00 | 0.00 | 0.00 | 84 | 1011.9 |
| 20260904013042 | 86 | 184 | 0.0 | 0.0 | 0.00 | 0.00 | 0.00 | 83 | 1012.1 |
| 20260904011543 | 87 | 145 | 0.0 | 0.0 | 0.00 | 0.00 | 0.00 | 81 | 1012.2 |
| 20260904010050 | 87 | 163 | 0.0 | 0.0 | 0.00 | 0.00 | 0.00 | 79 | 1012.7 |
| 20260904004543 | 87 | 202 | 0.0 | 0.0 | 0.00 | 0.00 | 0.00 | 78 | 1012.9 |
| 20260904003039 | 88 | 202 | 0.0 | 0.0 | 0.00 | 0.00 | 0.00 | 78 | 1013.0 |
| 20260904001543 | 88 | 234 | 0.0 | 0.0 | 0.00 | 0.00 | 0.00 | 77 | 1012.9 |
| 20260904000041 | 88 | 188 | 0.0 | 0.0 | 0.00 | 0.00 | 0.00 | 76 | 1012.5 |
| 20260903234545 | 88 | 189 | 0.0 | 4.3 | 0.00 | 0.00 | 0.00 | 76 | 1012.2 |
| 20260903233046 | 89 | 269 | 0.0 | 0.0 | 0.00 | 0.00 | 0.00 | 75 | 1012.5 |
| 20260903231539 | 89 | 228 | 0.0 | 4.3 | 0.00 | 0.00 | 0.00 | 74 | 1012.2 |
| 20260903230047 | 89 | 264 | 1.7 | 4.3 | 0.00 | 0.00 | 0.00 | 74 | 1012.3 |
| 20260903224545 | 90 | 269 | 2.6 | 7.0 | 0.00 | 0.00 | 0.00 | 72 | 1012.0 |
| 20260903223047 | 90 | 263 | 2.6 | 8.7 | 0.00 | 0.00 | 0.00 | 71 | 1011.8 |
| 20260903221549 | 90 | 227 | 6.1 | 9.6 | 0.00 | 0.00 | 0.00 | 71 | 1011.9 |
| 20260903220042 | 90 | 210 | 5.2 | 8.7 | 0.00 | 0.00 | 0.00 | 69 | 1012.2 |
| 20260903214538 | 90 | 212 | 5.2 | 7.8 | 0.00 | 0.00 | 0.00 | 69 | 1012.2 |
| 20260903213043 | 90 | 223 | 2.6 | 8.7 | 0.00 | 0.00 | 0.00 | 70 | 1012.4 |
| 20260903211547 | 89 | 157 | 1.7 | 7.8 | 0.00 | 0.00 | 0.00 | 71 | 1012.7 |
| 20260903210054 | 89 | 227 | 4.3 | 10.4 | 0.00 | 0.00 | 0.00 | 69 | 1012.7 |
| 20260903204543 | 89 | 228 | 4.3 | 7.8 | 0.00 | 0.00 | 0.00 | 69 | 1012.7 |
| 20260903203049 | 90 | 263 | 3.5 | 7.0 | 0.00 | 0.00 | 0.00 | 67 | 1012.9 |
| 20260903201542 | 89 | 213 | 3.5 | 8.7 | 0.00 | 0.00 | 0.00 | 68 | 1013.2 |
| 20260903200051 | 89 | 298 | 3.5 | 8.7 | 0.00 | 0.00 | 0.00 | 69 | 1013.4 |
| 20260903194545 | 88 | 284 | 0.9 | 7.0 | 0.00 | 0.00 | 0.00 | 70 | 1013.4 |
| 20260903193048 | 89 | 293 | 2.6 | 6.1 | 0.00 | 0.00 | 0.00 | 69 | 1014.0 |
| 20260903191542 | 87 | 247 | 2.6 | 7.0 | 0.00 | 0.00 | 0.00 | 70 | 1014.1 |
| 20260903190043 | 88 | 254 | 2.6 | 7.0 | 0.00 | 0.00 | 0.00 | 71 | 1014.0 |
| 20260903184548 | 87 | 253 | 3.5 | 7.0 | 0.00 | 0.00 | 0.00 | 72 | 1014.1 |
| 20260903183044 | 87 | 276 | 0.9 | 6.1 | 0.00 | 0.00 | 0.00 | 72 | 1014.2 |
| 20260903181542 | 87 | 319 | 0.9 | 3.5 | 0.00 | 0.00 | 0.00 | 71 | 1014.6 |
| 20260903180106 | 88 | 311 | 1.7 | 5.2 | 0.00 | 0.00 | 0.00 | 71 | 1014.7 |
| 20260903174544 | 87 | 97 | 0.9 | 3.5 | 0.00 | 0.00 | 0.00 | 71 | 1014.8 |
| 20260903173043 | 87 | 318 | 3.5 | 7.8 | 0.00 | 0.00 | 0.00 | 72 | 1015.4 |
| 20260903171549 | 86 | 301 | 0.9 | 7.0 | 0.00 | 0.00 | 0.00 | 75 | 1015.5 |
| 20260903170049 | 84 | 11 | 0.0 | 5.2 | 0.00 | 0.00 | 0.00 | 77 | 1015.9 |
| 20260903164558 | 84 | 200 | 1.7 | 7.0 | 0.00 | 0.00 | 0.00 | 77 | 1015.6 |
| 20260903163046 | 83 | 355 | 0.0 | 0.0 | 0.00 | 0.00 | 0.00 | 78 | 1015.7 |
| 20260903161543 | 81 | 186 | 0.0 | 5.2 | 0.00 | 0.00 | 0.00 | 82 | 1016.1 |
| 20260903160047 | 81 | 69 | 1.7 | 5.2 | 0.00 | 0.00 | 0.00 | 82 | 1015.9 |
| 20260903154552 | 79 | 165 | 0.0 | 4.3 | 0.00 | 0.00 | 0.00 | 87 | 1016.4 |
| 20260903153052 | 78 | 18 | 0.0 | 4.3 | 0.00 | 0.00 | 0.00 | 89 | 1016.1 |
| 20260903151553 | 77 | 360 | 0.0 | 4.3 | 0.00 | 0.00 | 0.00 | 90 | 1016.1 |
| 20260903150048 | 77 | 41 | 0.0 | 0.0 | 0.00 | 0.00 | 0.00 | 91 | 1015.8 |
| 20260903144556 | 77 | 123 | 1.7 | 3.5 | 0.00 | 0.00 | 0.00 | 92 | 1015.7 |
| 20260903143049 | 76 | 103 | 0.9 | 3.5 | 0.00 | 0.00 | 0.00 | 93 | 1015.7 |
| 20260903141549 | 76 | 70 | 0.9 | 4.3 | 0.00 | 0.00 | 0.00 | 93 | 1015.6 |